createdAt,value
2018-09-25T00:00:37.529Z,9.53
2018-09-25T00:01:45.409Z,9.70
2018-09-25T00:02:53.295Z,9.33
2018-09-25T00:04:01.137Z,9.83
2018-09-25T00:05:09.023Z,9.95
2018-09-25T00:06:16.902Z,13.85
2018-09-25T00:07:24.765Z,9.65
2018-09-25T00:08:32.484Z,7.80
2018-09-25T00:09:40.445Z,9.45
2018-09-25T00:10:48.314Z,10.48
2018-09-25T00:11:56.504Z,9.30
2018-09-25T00:13:04.294Z,8.90
2018-09-25T00:14:12.074Z,10.50
2018-09-25T00:15:20.301Z,9.95
2018-09-25T00:16:28.158Z,8.65
2018-09-25T00:17:36.106Z,12.25
2018-09-25T00:18:44.209Z,11.53
2018-09-25T00:19:52.086Z,10.65
2018-09-25T00:20:59.865Z,10.30
2018-09-25T00:22:07.829Z,10.25
2018-09-25T00:23:15.610Z,8.50
2018-09-25T00:24:23.473Z,10.72
2018-09-25T00:25:31.417Z,9.85
2018-09-25T00:26:39.434Z,9.88
2018-09-25T00:27:47.680Z,11.15
2018-09-25T00:28:55.865Z,11.18
2018-09-25T00:35:46.834Z,10.55
2018-09-25T00:36:54.837Z,8.75
2018-09-25T00:38:02.777Z,10.30
2018-09-25T00:39:13.064Z,9.85
2018-09-25T00:40:21.153Z,8.28
2018-09-25T00:41:29.040Z,11.90
2018-09-25T00:42:36.793Z,10.08
2018-09-25T00:43:44.651Z,10.40
2018-09-25T00:44:52.594Z,9.15
2018-09-25T00:46:00.581Z,10.32
2018-09-25T00:47:08.755Z,10.48
2018-09-25T00:48:16.446Z,9.98
2018-09-25T00:49:24.193Z,8.25
2018-09-25T00:50:32.142Z,11.05
2018-09-25T00:51:40.046Z,8.90
2018-09-25T00:52:47.930Z,12.23
2018-09-25T00:53:55.817Z,10.98
2018-09-25T00:55:03.857Z,9.03
2018-09-25T00:56:11.955Z,11.18
2018-09-25T00:57:20.301Z,11.05
2018-09-25T00:58:28.090Z,10.20
2018-09-25T00:59:35.981Z,10.32
2018-09-25T01:00:43.787Z,10.63
2018-09-25T01:01:51.662Z,9.55
2018-09-25T01:02:59.625Z,10.20
2018-09-25T01:04:07.565Z,10.95
2018-09-25T01:05:15.550Z,11.00
2018-09-25T01:06:23.456Z,10.63
2018-09-25T01:07:31.261Z,10.65
2018-09-25T01:08:39.201Z,10.13
2018-09-25T01:09:47.261Z,10.05
2018-09-25T01:10:55.423Z,10.08
2018-09-25T01:12:03.429Z,9.93
2018-09-25T01:13:11.380Z,10.30
2018-09-25T01:14:19.272Z,10.25
2018-09-25T01:15:27.152Z,10.70
2018-09-25T01:16:35.158Z,11.10
2018-09-25T01:17:43.144Z,10.75
2018-09-25T01:18:51.065Z,9.18
2018-09-25T01:19:59.108Z,12.30
2018-09-25T01:21:07.051Z,11.38
2018-09-25T01:22:15.095Z,8.83
2018-09-25T01:23:22.989Z,8.60
2018-09-25T01:24:30.884Z,10.65
2018-09-25T01:25:38.649Z,11.63
2018-09-25T01:26:46.599Z,10.08
2018-09-25T01:27:54.641Z,10.60
2018-09-25T01:29:02.583Z,10.72
2018-09-25T01:30:10.402Z,9.83
2018-09-25T01:31:18.281Z,11.00
2018-09-25T01:32:26.233Z,11.40
2018-09-25T01:33:34.322Z,8.68
2018-09-25T01:34:42.240Z,10.30
2018-09-25T01:35:50.287Z,9.48
2018-09-25T01:36:58.047Z,8.88
2018-09-25T01:38:05.890Z,8.88
2018-09-25T01:39:13.837Z,11.00
2018-09-25T01:40:21.789Z,10.25
2018-09-25T01:41:30.073Z,12.37
2018-09-25T01:42:38.016Z,9.43
2018-09-25T01:43:45.906Z,8.05
2018-09-25T01:44:53.798Z,8.30
2018-09-25T01:46:02.045Z,8.30
2018-09-25T01:47:09.978Z,7.95
2018-09-25T01:48:17.761Z,7.90
2018-09-25T01:49:25.635Z,7.58
2018-09-25T01:50:33.631Z,8.53
2018-09-25T01:51:41.478Z,8.70
2018-09-25T01:52:49.415Z,8.58
2018-09-25T01:53:57.336Z,9.45
2018-09-25T01:55:05.345Z,8.05
2018-09-25T01:56:13.207Z,8.53
2018-09-25T01:57:21.042Z,8.60
2018-09-25T01:58:28.920Z,8.48
2018-09-25T01:59:36.892Z,7.65
2018-09-25T02:00:44.919Z,6.62
2018-09-25T02:01:52.814Z,8.28
2018-09-25T02:03:00.671Z,8.03
2018-09-25T02:04:08.545Z,7.90
2018-09-25T02:05:16.379Z,6.55
2018-09-25T02:06:24.340Z,6.92
2018-09-25T02:07:32.082Z,5.78
2018-09-25T02:08:39.918Z,8.08
2018-09-25T02:09:47.717Z,7.62
2018-09-25T02:10:55.629Z,7.25
2018-09-25T02:12:03.501Z,6.40
2018-09-25T02:13:11.402Z,7.78
2018-09-25T02:14:19.170Z,6.20
2018-09-25T02:15:27.107Z,6.75
2018-09-25T02:16:35.011Z,7.20
2018-09-25T02:17:42.958Z,6.45
2018-09-25T02:18:50.746Z,6.25
2018-09-25T02:19:58.989Z,7.37
2018-09-25T02:21:06.779Z,8.28
2018-09-25T02:22:14.651Z,6.83
2018-09-25T02:23:22.534Z,7.42
2018-09-25T02:24:30.514Z,6.47
2018-09-25T02:25:38.813Z,5.85
2018-09-25T02:26:46.763Z,7.12
2018-09-25T02:27:54.662Z,8.20
2018-09-25T02:29:02.565Z,8.53
2018-09-25T02:30:10.619Z,6.65
2018-09-25T02:31:18.662Z,9.60
2018-09-25T02:32:26.473Z,6.87
2018-09-25T02:33:34.326Z,7.42
2018-09-25T02:34:42.307Z,8.28
2018-09-25T02:35:50.439Z,7.85
2018-09-25T02:36:58.509Z,7.15
2018-09-25T02:38:06.381Z,9.38
2018-09-25T02:39:14.572Z,8.10
2018-09-25T02:40:22.469Z,8.40
2018-09-25T02:41:30.307Z,8.13
2018-09-25T02:42:38.239Z,6.60
2018-09-25T02:43:46.268Z,8.33
2018-09-25T02:44:54.226Z,8.05
2018-09-25T02:46:02.061Z,7.80
2018-09-25T02:47:09.950Z,8.73
2018-09-25T02:48:17.798Z,7.70
2018-09-25T02:49:25.708Z,8.45
2018-09-25T02:50:33.552Z,7.45
2018-09-25T02:51:41.419Z,6.87
2018-09-25T02:52:49.326Z,7.40
2018-09-25T02:53:57.211Z,8.43
2018-09-25T02:55:04.969Z,6.33
2018-09-25T02:56:12.774Z,6.95
2018-09-25T02:57:20.533Z,7.60
2018-09-25T02:58:28.366Z,6.33
2018-09-25T02:59:36.156Z,6.37
2018-09-25T03:00:43.989Z,7.95
2018-09-25T03:01:51.781Z,8.75
2018-09-25T03:02:59.746Z,6.67
2018-09-25T03:04:07.741Z,8.03
2018-09-25T03:05:15.621Z,7.95
2018-09-25T03:06:23.570Z,6.85
2018-09-25T03:07:31.561Z,6.58
2018-09-25T03:08:39.402Z,8.08
2018-09-25T03:09:47.306Z,7.12
2018-09-25T03:10:55.451Z,8.08
2018-09-25T03:12:03.659Z,9.43
2018-09-25T03:13:11.537Z,7.90
2018-09-25T03:14:19.478Z,7.10
2018-09-25T03:15:27.478Z,6.45
2018-09-25T03:16:35.453Z,7.90
2018-09-25T03:17:43.431Z,9.50
2018-09-25T03:18:51.320Z,7.28
2018-09-25T03:19:59.218Z,6.83
2018-09-25T03:21:07.012Z,8.35
2018-09-25T03:22:14.929Z,8.15
2018-09-25T03:23:22.783Z,7.75
2018-09-25T03:24:30.501Z,7.87
2018-09-25T03:25:38.444Z,7.45
2018-09-25T03:26:46.550Z,7.47
2018-09-25T03:27:54.324Z,8.08
2018-09-25T03:29:02.533Z,9.88
2018-09-25T03:30:11.102Z,7.08
2018-09-25T03:31:19.018Z,9.60
2018-09-25T03:32:26.909Z,7.90
2018-09-25T03:33:34.850Z,10.93
2018-09-25T03:34:42.737Z,9.90
2018-09-25T03:35:50.610Z,7.87
2018-09-25T03:36:58.398Z,7.90
2018-09-25T03:38:06.378Z,9.05
2018-09-25T03:39:14.140Z,9.33
2018-09-25T03:40:21.991Z,10.08
2018-09-25T03:41:30.035Z,11.75
2018-09-25T03:42:38.252Z,8.15
2018-09-25T03:43:46.152Z,10.55
2018-09-25T03:44:54.014Z,9.23
2018-09-25T03:46:01.866Z,9.58
2018-09-25T03:47:09.770Z,9.50
2018-09-25T03:48:17.513Z,9.85
2018-09-25T03:49:25.286Z,11.45
2018-09-25T03:50:33.111Z,8.30
2018-09-25T03:51:41.003Z,9.65
2018-09-25T03:52:48.956Z,12.37
2018-09-25T03:53:57.374Z,9.83
2018-09-25T03:55:05.314Z,8.50
2018-09-25T03:56:13.186Z,10.15
2018-09-25T03:57:21.057Z,9.38
2018-09-25T03:58:29.340Z,9.58
2018-09-25T03:59:37.389Z,10.90
2018-09-25T04:00:45.352Z,9.45
2018-09-25T04:01:53.396Z,10.82
2018-09-25T04:03:01.735Z,9.63
2018-09-25T04:04:09.657Z,10.60
2018-09-25T04:05:17.825Z,11.55
2018-09-25T04:06:25.718Z,11.05
2018-09-25T04:07:33.514Z,9.68
2018-09-25T04:08:41.229Z,11.57
2018-09-25T04:09:49.116Z,10.13
2018-09-25T04:10:56.937Z,12.82
2018-09-25T04:12:04.857Z,10.35
2018-09-25T04:13:12.930Z,9.80
2018-09-25T04:14:20.936Z,9.65
2018-09-25T04:15:28.873Z,10.10
2018-09-25T04:16:36.760Z,7.20
2018-09-25T04:17:44.589Z,8.78
2018-09-25T04:18:52.770Z,9.80
2018-09-25T04:20:00.916Z,9.68
2018-09-25T04:21:08.842Z,9.73
2018-09-25T04:22:16.801Z,8.03
2018-09-25T04:23:24.577Z,9.43
2018-09-25T04:24:32.519Z,8.75
2018-09-25T04:25:40.529Z,11.08
2018-09-25T04:26:48.301Z,10.20
2018-09-25T04:27:56.271Z,8.60
2018-09-25T04:29:04.106Z,9.73
2018-09-25T04:30:12.217Z,11.20
2018-09-25T04:31:20.191Z,11.33
2018-09-25T04:32:28.094Z,9.20
2018-09-25T04:33:36.176Z,10.60
2018-09-25T04:34:44.084Z,11.05
2018-09-25T04:35:52.074Z,10.68
2018-09-25T04:37:00.010Z,10.23
2018-09-25T04:38:08.000Z,10.95
2018-09-25T04:39:15.787Z,8.85
2018-09-25T04:40:23.636Z,8.28
2018-09-25T04:41:31.599Z,12.05
2018-09-25T04:42:39.346Z,10.43
2018-09-25T04:43:47.225Z,12.18
2018-09-25T04:44:55.129Z,13.05
2018-09-25T04:46:03.266Z,8.80
2018-09-25T04:47:11.676Z,10.10
2018-09-25T04:48:19.566Z,9.60
2018-09-25T04:49:27.457Z,10.40
2018-09-25T04:50:35.397Z,9.18
2018-09-25T04:51:43.252Z,8.30
2018-09-25T04:52:51.317Z,11.15
2018-09-25T04:53:59.157Z,12.55
2018-09-25T04:55:06.923Z,9.15
2018-09-25T04:56:15.010Z,9.08
2018-09-25T04:57:22.854Z,7.50
2018-09-25T04:58:31.055Z,7.72
2018-09-25T04:59:38.818Z,8.05
2018-09-25T05:00:46.678Z,9.63
2018-09-25T05:01:54.597Z,10.35
2018-09-25T05:03:02.462Z,9.93
2018-09-25T05:04:10.358Z,8.93
2018-09-25T05:05:18.362Z,7.30
2018-09-25T05:06:26.554Z,8.10
2018-09-25T05:07:34.456Z,8.90
2018-09-25T05:08:42.657Z,8.50
2018-09-25T05:09:50.479Z,8.08
2018-09-25T05:10:58.761Z,8.70
2018-09-25T05:12:06.739Z,7.55
2018-09-25T05:13:14.622Z,6.90
2018-09-25T05:14:22.716Z,8.83
2018-09-25T05:15:30.677Z,7.78
2018-09-25T05:16:38.589Z,10.43
2018-09-25T05:17:46.460Z,7.10
2018-09-25T05:18:54.578Z,9.08
2018-09-25T05:20:02.604Z,9.50
2018-09-25T05:21:10.704Z,11.12
2018-09-25T05:22:18.711Z,10.70
2018-09-25T05:23:26.786Z,8.18
2018-09-25T05:24:34.819Z,8.75
2018-09-25T05:25:42.614Z,8.58
2018-09-25T05:26:50.590Z,9.45
2018-09-25T05:27:58.441Z,10.60
2018-09-25T05:29:06.305Z,13.22
2018-09-25T05:30:14.287Z,7.70
2018-09-25T05:31:22.234Z,10.65
2018-09-25T05:32:30.149Z,10.35
2018-09-25T05:33:38.035Z,6.47
2018-09-25T05:34:46.130Z,9.65
2018-09-25T05:35:54.094Z,8.58
2018-09-25T05:37:02.036Z,9.38
2018-09-25T05:38:09.913Z,9.83
2018-09-25T05:39:17.836Z,9.73
2018-09-25T05:40:25.736Z,8.75
2018-09-25T05:41:33.714Z,7.33
2018-09-25T05:42:41.695Z,9.08
2018-09-25T05:43:49.897Z,9.08
2018-09-25T05:44:57.712Z,10.58
2018-09-25T05:46:05.651Z,9.13
2018-09-25T05:47:13.635Z,10.20
2018-09-25T05:48:21.604Z,9.03
2018-09-25T05:49:29.750Z,8.13
2018-09-25T05:50:37.949Z,8.65
2018-09-25T05:51:45.945Z,8.13
2018-09-25T05:52:53.886Z,9.83
2018-09-25T05:54:01.850Z,10.03
2018-09-25T05:55:09.705Z,9.60
2018-09-25T05:56:17.566Z,9.43
2018-09-25T05:57:25.389Z,11.57
2018-09-25T05:58:33.301Z,8.20
2018-09-25T05:59:41.220Z,8.25
2018-09-25T06:00:49.067Z,9.58
2018-09-25T06:01:56.884Z,8.88
2018-09-25T06:03:05.006Z,10.48
2018-09-25T06:04:13.018Z,10.18
2018-09-25T06:05:21.322Z,8.43
2018-09-25T06:06:29.318Z,9.30
2018-09-25T06:07:37.214Z,9.65
2018-09-25T06:08:45.078Z,9.43
2018-09-25T06:09:53.199Z,8.28
2018-09-25T06:11:01.063Z,10.80
2018-09-25T06:12:08.849Z,11.30
2018-09-25T06:13:16.774Z,8.98
2018-09-25T06:14:24.666Z,10.60
2018-09-25T06:15:32.509Z,9.55
2018-09-25T06:16:40.348Z,8.08
2018-09-25T06:17:48.096Z,8.90
2018-09-25T06:18:55.982Z,8.98
2018-09-25T06:20:03.921Z,9.25
2018-09-25T06:21:11.786Z,7.80
2018-09-25T06:22:19.613Z,10.08
2018-09-25T06:23:27.411Z,9.33
2018-09-25T06:24:35.282Z,8.30
2018-09-25T06:25:43.180Z,9.50
2018-09-25T06:26:51.026Z,9.00
2018-09-25T06:27:58.815Z,9.23
2018-09-25T06:29:06.814Z,8.60
2018-09-25T06:30:14.885Z,10.60
2018-09-25T06:31:22.852Z,11.20
2018-09-25T06:32:30.814Z,9.98
2018-09-25T06:33:38.659Z,7.35
2018-09-25T06:34:46.560Z,9.18
2018-09-25T06:35:54.427Z,8.43
2018-09-25T06:37:02.217Z,9.53
2018-09-25T06:38:10.124Z,9.13
2018-09-25T06:39:18.021Z,7.25
2018-09-25T06:40:26.012Z,7.70
2018-09-25T06:41:33.802Z,8.65
2018-09-25T06:42:41.650Z,7.15
2018-09-25T06:43:49.906Z,10.60
2018-09-25T06:44:57.902Z,9.93
2018-09-25T06:46:05.770Z,10.32
2018-09-25T06:47:13.908Z,8.80
2018-09-25T06:48:21.781Z,8.40
2018-09-25T06:49:29.677Z,10.20
2018-09-25T06:50:37.593Z,10.18
2018-09-25T06:51:45.353Z,8.43
2018-09-25T06:52:53.370Z,8.95
2018-09-25T06:54:01.130Z,9.65
2018-09-25T06:55:09.014Z,9.88
2018-09-25T06:56:17.005Z,10.98
2018-09-25T06:57:24.773Z,8.40
2018-09-25T06:58:32.661Z,8.05
2018-09-25T06:59:40.581Z,7.60
2018-09-25T07:00:48.617Z,9.63
2018-09-25T07:01:56.333Z,10.82
2018-09-25T07:03:04.160Z,11.88
2018-09-25T07:04:12.125Z,9.75
2018-09-25T07:05:19.942Z,9.78
2018-09-25T07:06:27.895Z,11.95
2018-09-25T07:07:35.833Z,8.98
2018-09-25T07:08:43.798Z,8.98
2018-09-25T07:09:51.734Z,10.58
2018-09-25T07:10:59.724Z,9.45
2018-09-25T07:12:07.816Z,9.73
2018-09-25T07:13:15.726Z,10.63
2018-09-25T07:14:23.596Z,10.50
2018-09-25T07:15:31.587Z,8.45
2018-09-25T07:16:39.638Z,9.13
2018-09-25T07:17:47.538Z,10.18
2018-09-25T07:18:55.385Z,10.98
2018-09-25T07:20:03.168Z,9.65
2018-09-25T07:21:11.050Z,12.20
2018-09-25T07:22:18.785Z,8.93
2018-09-25T07:23:26.689Z,9.45
2018-09-25T07:24:34.486Z,10.05
2018-09-25T07:25:42.373Z,9.18
2018-09-25T07:26:50.197Z,10.43
2018-09-25T07:27:57.942Z,10.58
2018-09-25T07:29:05.794Z,11.55
2018-09-25T07:30:13.765Z,9.18
2018-09-25T07:31:21.632Z,11.00
2018-09-25T07:32:29.445Z,8.63
2018-09-25T07:33:37.375Z,7.45
2018-09-25T07:34:45.193Z,12.43
2018-09-25T07:35:53.013Z,9.45
2018-09-25T07:37:01.428Z,9.18
2018-09-25T07:38:09.501Z,8.55
2018-09-25T07:39:17.554Z,10.50
2018-09-25T07:40:25.379Z,9.90
2018-09-25T07:41:33.327Z,7.15
2018-09-25T07:42:41.180Z,8.80
2018-09-25T07:43:49.146Z,8.85
2018-09-25T07:44:57.193Z,10.55
2018-09-25T07:46:05.086Z,9.08
2018-09-25T07:47:12.924Z,9.85
2018-09-25T07:48:20.876Z,8.55
2018-09-25T07:49:28.794Z,7.67
2018-09-25T07:50:36.755Z,9.63
2018-09-25T07:51:44.695Z,9.58
2018-09-25T07:52:52.666Z,8.23
2018-09-25T07:54:00.395Z,8.33
2018-09-25T07:55:08.521Z,5.78
2018-09-25T07:56:16.293Z,6.28
2018-09-25T07:57:24.176Z,7.55
2018-09-25T07:58:32.104Z,7.90
2018-09-25T07:59:39.915Z,7.37
2018-09-25T08:00:47.624Z,6.25
2018-09-25T08:01:55.525Z,6.42
2018-09-25T08:03:03.844Z,7.50
2018-09-25T08:04:13.654Z,11.33
2018-09-25T08:05:21.590Z,9.80
2018-09-25T08:06:29.596Z,8.48
2018-09-25T08:07:37.606Z,7.85
2018-09-25T08:08:45.657Z,8.68
2018-09-25T08:09:53.630Z,11.00
2018-09-25T08:11:01.642Z,7.45
2018-09-25T08:12:09.666Z,9.00
2018-09-25T08:13:17.579Z,7.83
2018-09-25T08:14:25.585Z,7.62
2018-09-25T08:15:33.751Z,9.30
2018-09-25T08:16:41.482Z,7.92
2018-09-25T08:17:49.414Z,9.30
2018-09-25T08:18:57.267Z,6.75
2018-09-25T08:20:05.222Z,8.25
2018-09-25T08:21:13.114Z,12.73
2018-09-25T08:22:21.427Z,7.80
2018-09-25T08:23:29.323Z,5.80
2018-09-25T08:24:37.298Z,7.72
2018-09-25T08:25:45.196Z,7.15
2018-09-25T08:26:53.066Z,5.72
2018-09-25T08:28:00.998Z,9.93
2018-09-25T08:29:09.123Z,6.45
2018-09-25T08:30:17.069Z,7.87
2018-09-25T08:31:24.978Z,8.50
2018-09-25T08:32:32.769Z,8.10
2018-09-25T08:33:41.073Z,8.68
2018-09-25T08:34:48.895Z,6.28
2018-09-25T08:35:56.801Z,8.48
2018-09-25T08:37:04.697Z,6.83
2018-09-25T08:38:12.569Z,7.28
2018-09-25T08:39:20.739Z,8.13
2018-09-25T08:40:28.355Z,6.78
2018-09-25T08:41:36.302Z,8.78
2018-09-25T08:42:44.243Z,7.78
2018-09-25T08:43:52.315Z,7.42
2018-09-25T08:45:00.316Z,5.62
2018-09-25T08:46:08.750Z,5.97
2018-09-25T08:47:16.636Z,6.75
2018-09-25T08:48:24.628Z,5.53
2018-09-25T08:49:32.422Z,5.10
2018-09-25T08:50:40.697Z,6.35
2018-09-25T08:51:48.638Z,6.80
2018-09-25T08:52:56.500Z,7.50
2018-09-25T08:54:04.296Z,5.58
2018-09-25T08:55:12.298Z,5.00
2018-09-25T08:56:20.158Z,6.35
2018-09-25T08:57:28.182Z,5.30
2018-09-25T08:58:35.954Z,6.10
2018-09-25T08:59:43.790Z,8.85
2018-09-25T09:00:51.711Z,4.65
2018-09-25T09:01:59.495Z,6.83
2018-09-25T09:03:07.622Z,4.95
2018-09-25T09:04:15.510Z,6.33
2018-09-25T09:05:23.520Z,6.03
2018-09-25T09:06:31.417Z,4.45
2018-09-25T09:07:39.334Z,5.80
2018-09-25T09:08:47.353Z,6.12
2018-09-25T09:09:55.172Z,7.08
2018-09-25T09:11:03.075Z,6.25
2018-09-25T09:12:11.047Z,4.83
2018-09-25T09:13:19.042Z,6.10
2018-09-25T09:14:26.949Z,6.47
2018-09-25T09:15:34.841Z,5.47
2018-09-25T09:16:42.695Z,5.15
2018-09-25T09:17:50.618Z,6.53
2018-09-25T09:18:58.461Z,6.67
2018-09-25T09:20:06.350Z,6.40
2018-09-25T09:21:14.289Z,7.35
2018-09-25T09:22:22.128Z,7.33
2018-09-25T09:23:30.006Z,6.35
2018-09-25T09:24:38.137Z,5.20
2018-09-25T09:25:46.215Z,7.70
2018-09-25T09:26:54.109Z,5.70
2018-09-25T09:28:02.016Z,8.18
2018-09-25T09:29:10.122Z,5.00
2018-09-25T09:30:18.125Z,5.65
2018-09-25T09:31:26.026Z,6.58
2018-09-25T09:32:34.075Z,6.90
2018-09-25T09:33:41.954Z,6.53
2018-09-25T09:34:50.057Z,6.35
2018-09-25T09:35:58.073Z,7.17
2018-09-25T09:37:06.029Z,6.17
2018-09-25T09:38:13.845Z,7.00
2018-09-25T09:39:21.765Z,6.67
2018-09-25T09:40:29.661Z,5.50
2018-09-25T09:41:37.637Z,6.45
2018-09-25T09:42:45.282Z,7.08
2018-09-25T09:43:53.182Z,4.95
2018-09-25T09:45:01.305Z,7.62
2018-09-25T09:46:09.366Z,5.90
2018-09-25T09:47:17.269Z,6.20
2018-09-25T09:48:25.309Z,5.45
2018-09-25T09:49:33.611Z,6.08
2018-09-25T09:50:41.502Z,5.45
2018-09-25T09:51:49.303Z,5.67
2018-09-25T09:52:57.487Z,6.12
2018-09-25T09:54:05.488Z,6.05
2018-09-25T09:55:13.474Z,5.00
2018-09-25T09:56:21.529Z,5.47
2018-09-25T09:57:29.467Z,7.80
2018-09-25T09:58:37.415Z,5.65
2018-09-25T09:59:45.437Z,5.03
2018-09-25T10:00:53.575Z,5.40
2018-09-25T10:02:01.447Z,6.03
2018-09-25T10:03:09.362Z,5.33
2018-09-25T10:04:17.301Z,4.90
2018-09-25T10:05:25.384Z,4.75
2018-09-25T10:06:33.242Z,5.60
2018-09-25T10:07:41.241Z,5.53
2018-09-25T10:08:49.145Z,4.92
2018-09-25T10:09:57.094Z,5.35
2018-09-25T10:11:05.067Z,6.10
2018-09-25T10:12:13.049Z,6.72
2018-09-25T10:13:20.952Z,5.35
2018-09-25T10:14:28.866Z,6.25
2018-09-25T10:15:36.955Z,4.45
2018-09-25T10:16:44.783Z,7.83
2018-09-25T10:17:52.686Z,5.35
2018-09-25T10:19:00.640Z,6.90
2018-09-25T10:20:08.815Z,5.62
2018-09-25T10:21:16.730Z,5.97
2018-09-25T10:22:24.646Z,6.10
2018-09-25T10:23:32.541Z,5.15
2018-09-25T10:24:40.434Z,4.25
2018-09-25T10:25:48.284Z,5.20
2018-09-25T10:26:56.212Z,4.78
2018-09-25T10:28:04.197Z,5.55
2018-09-25T10:29:12.260Z,5.45
2018-09-25T10:30:20.070Z,4.33
2018-09-25T10:31:28.004Z,5.83
2018-09-25T10:32:35.755Z,4.78
2018-09-25T10:33:43.594Z,5.03
2018-09-25T10:34:51.330Z,4.87
2018-09-25T10:35:59.482Z,5.50
2018-09-25T10:37:07.573Z,5.37
2018-09-25T10:38:15.516Z,4.97
2018-09-25T10:39:23.566Z,7.17
2018-09-25T10:40:31.538Z,6.53
2018-09-25T10:41:39.437Z,4.50
2018-09-25T10:42:47.531Z,4.12
2018-09-25T10:43:55.645Z,6.65
2018-09-25T10:45:03.803Z,6.65
2018-09-25T10:46:11.946Z,4.37
2018-09-25T10:47:19.989Z,5.83
2018-09-25T10:48:28.124Z,5.45
2018-09-25T10:49:35.943Z,5.05
2018-09-25T10:50:44.159Z,4.90
2018-09-25T10:51:51.912Z,4.95
2018-09-25T10:52:59.776Z,5.55
2018-09-25T10:54:07.923Z,6.40
2018-09-25T10:55:16.005Z,5.08
2018-09-25T10:56:24.364Z,5.15
2018-09-25T10:57:32.360Z,7.00
2018-09-25T10:58:40.281Z,8.08
2018-09-25T10:59:48.203Z,4.40
2018-09-25T11:00:56.484Z,4.87
2018-09-25T11:02:04.426Z,5.12
2018-09-25T11:03:12.558Z,4.78
2018-09-25T11:04:20.176Z,5.12
2018-09-25T11:05:28.073Z,5.15
2018-09-25T11:06:36.372Z,5.90
2018-09-25T11:07:44.358Z,5.42
2018-09-25T11:08:52.102Z,6.60
2018-09-25T11:10:00.067Z,5.75
2018-09-25T11:11:07.942Z,6.70
2018-09-25T11:12:15.842Z,5.90
2018-09-25T11:13:24.021Z,4.58
2018-09-25T11:14:31.781Z,5.75
2018-09-25T11:15:39.632Z,4.45
2018-09-25T11:16:47.509Z,5.70
2018-09-25T11:17:55.489Z,6.65
2018-09-25T11:19:03.231Z,4.60
2018-09-25T11:20:11.542Z,4.60
2018-09-25T11:21:19.398Z,7.90
2018-09-25T11:22:27.425Z,5.00
2018-09-25T11:23:35.457Z,4.80
2018-09-25T11:24:43.257Z,4.45
2018-09-25T11:25:51.007Z,5.37
2018-09-25T11:26:58.909Z,5.50
2018-09-25T11:28:06.701Z,6.67
2018-09-25T11:29:14.618Z,5.55
2018-09-25T11:30:22.513Z,4.67
2018-09-25T11:31:30.506Z,4.95
2018-09-25T11:32:38.516Z,5.62
2018-09-25T11:33:46.257Z,5.00
2018-09-25T11:34:54.149Z,4.72
2018-09-25T11:36:01.869Z,4.92
2018-09-25T11:37:09.864Z,5.42
2018-09-25T11:38:17.945Z,3.80
2018-09-25T11:39:25.754Z,5.80
2018-09-25T11:40:33.705Z,5.65
2018-09-25T11:41:41.425Z,7.70
2018-09-25T11:42:49.210Z,6.00
2018-09-25T11:43:57.146Z,5.90
2018-09-25T11:45:05.085Z,4.47
2018-09-25T11:46:12.915Z,5.10
2018-09-25T11:47:20.888Z,5.72
2018-09-25T11:48:28.754Z,4.92
2018-09-25T11:49:36.607Z,4.85
2018-09-25T11:50:44.425Z,4.37
2018-09-25T11:51:52.173Z,4.20
2018-09-25T11:53:00.139Z,4.20
2018-09-25T11:54:08.070Z,3.27
2018-09-25T11:55:16.257Z,4.15
2018-09-25T11:56:24.188Z,4.60
2018-09-25T11:57:32.010Z,4.58
2018-09-25T11:58:40.179Z,4.25
2018-09-25T11:59:47.841Z,4.30
2018-09-25T12:00:55.816Z,4.75
2018-09-25T12:02:03.840Z,5.05
2018-09-25T12:03:11.710Z,4.45
2018-09-25T12:04:19.577Z,3.35
2018-09-25T12:05:27.485Z,4.78
2018-09-25T12:06:35.364Z,4.22
2018-09-25T12:07:43.405Z,5.70
2018-09-25T12:08:51.226Z,4.25
2018-09-25T12:09:59.115Z,5.10
2018-09-25T12:11:06.952Z,5.42
2018-09-25T12:12:14.973Z,5.83
2018-09-25T12:13:22.801Z,5.62
2018-09-25T12:14:30.670Z,4.35
2018-09-25T12:15:38.542Z,4.97
2018-09-25T12:16:46.429Z,4.25
2018-09-25T12:17:54.489Z,3.55
2018-09-25T12:19:02.259Z,4.95
2018-09-25T12:20:10.202Z,4.60
2018-09-25T12:21:18.098Z,6.22
2018-09-25T12:22:25.937Z,3.85
2018-09-25T12:23:33.787Z,4.67
2018-09-25T12:24:41.665Z,4.00
2018-09-25T12:25:49.620Z,6.00
2018-09-25T12:26:57.468Z,5.83
2018-09-25T12:28:05.320Z,5.35
2018-09-25T12:29:13.206Z,4.05
2018-09-25T12:30:21.106Z,3.95
2018-09-25T12:31:28.932Z,6.17
2018-09-25T12:32:36.935Z,5.45
2018-09-25T12:33:44.698Z,5.45
2018-09-25T12:34:52.857Z,4.50
2018-09-25T12:36:00.614Z,4.30
2018-09-25T12:37:08.545Z,4.05
2018-09-25T12:38:16.379Z,3.65
2018-09-25T12:39:24.167Z,5.28
2018-09-25T12:40:31.973Z,4.80
2018-09-25T12:41:39.773Z,4.15
2018-09-25T12:42:47.541Z,4.67
2018-09-25T12:43:55.401Z,4.28
2018-09-25T12:45:03.257Z,4.80
2018-09-25T12:46:11.173Z,4.75
2018-09-25T12:47:19.265Z,4.75
2018-09-25T12:48:27.025Z,4.53
2018-09-25T12:49:34.825Z,4.15
2018-09-25T12:50:42.849Z,4.30
2018-09-25T12:51:50.681Z,4.35
2018-09-25T12:52:58.685Z,4.00
2018-09-25T12:54:06.589Z,6.53
2018-09-25T12:55:14.354Z,5.30
2018-09-25T12:56:22.208Z,4.45
2018-09-25T12:57:29.977Z,4.00
2018-09-25T12:58:37.840Z,3.70
2018-09-25T12:59:45.705Z,4.45
2018-09-25T13:00:53.701Z,4.75
2018-09-25T13:02:01.590Z,4.75
2018-09-25T13:03:09.626Z,5.33
2018-09-25T13:04:17.603Z,6.03
2018-09-25T13:05:25.622Z,6.92
2018-09-25T13:06:33.546Z,12.88
2018-09-25T13:07:41.513Z,10.45
2018-09-25T13:08:49.308Z,5.40
2018-09-25T13:09:57.318Z,5.47
2018-09-25T13:11:05.237Z,4.65
2018-09-25T13:12:13.134Z,5.20
2018-09-25T13:13:21.052Z,4.90
2018-09-25T13:14:28.947Z,4.92
2018-09-25T13:15:36.799Z,3.80
2018-09-25T13:16:45.217Z,5.05
2018-09-25T13:17:53.426Z,7.55
2018-09-25T13:19:01.325Z,6.05
2018-09-25T13:20:09.264Z,3.37
2018-09-25T13:21:17.142Z,6.67
2018-09-25T13:22:25.062Z,6.65
2018-09-25T13:23:33.033Z,3.80
2018-09-25T13:24:40.906Z,3.20
2018-09-25T13:25:48.799Z,4.30
2018-09-25T13:26:56.621Z,3.45
2018-09-25T13:28:04.557Z,4.15
2018-09-25T13:29:12.373Z,5.67
2018-09-25T13:30:20.330Z,5.42
2018-09-25T13:31:28.230Z,4.47
2018-09-25T13:32:36.401Z,3.27
2018-09-25T13:33:44.455Z,4.83
2018-09-25T13:34:52.475Z,5.37
2018-09-25T13:36:00.497Z,4.35
2018-09-25T13:37:08.542Z,4.55
2018-09-25T13:38:16.817Z,5.12
2018-09-25T13:39:24.706Z,4.60
2018-09-25T13:40:32.697Z,10.60
2018-09-25T13:41:40.604Z,5.47
2018-09-25T13:42:48.527Z,4.87
2018-09-25T13:43:56.367Z,5.42
2018-09-25T13:45:04.407Z,4.90
2018-09-25T13:46:12.228Z,6.20
2018-09-25T13:47:20.181Z,4.70
2018-09-25T13:48:28.374Z,4.28
2018-09-25T13:49:36.258Z,5.35
2018-09-25T13:50:44.195Z,9.35
2018-09-25T13:51:52.092Z,4.40
2018-09-25T13:52:59.858Z,4.05
2018-09-25T13:54:07.793Z,4.20
2018-09-25T13:55:15.856Z,3.55
2018-09-25T13:56:23.570Z,5.78
2018-09-25T13:57:31.541Z,4.87
2018-09-25T13:58:39.272Z,5.42
2018-09-25T13:59:47.134Z,4.85
2018-09-25T14:00:55.117Z,5.20
2018-09-25T14:02:03.031Z,4.00
2018-09-25T14:03:10.909Z,4.28
2018-09-25T14:04:18.915Z,6.45
2018-09-25T14:05:26.753Z,5.50
2018-09-25T14:06:34.626Z,5.35
2018-09-25T14:07:42.488Z,4.90
2018-09-25T14:08:50.357Z,3.45
2018-09-25T14:09:58.217Z,5.78
2018-09-25T14:11:06.119Z,5.20
2018-09-25T14:12:14.110Z,5.40
2018-09-25T14:13:21.937Z,4.90
2018-09-25T14:14:29.809Z,6.70
2018-09-25T14:15:37.647Z,4.47
2018-09-25T14:16:45.353Z,4.87
2018-09-25T14:17:53.316Z,4.70
2018-09-25T14:19:01.275Z,4.60
2018-09-25T14:20:09.293Z,4.55
2018-09-25T14:21:17.521Z,9.25
2018-09-25T14:22:25.437Z,6.00
2018-09-25T14:23:33.334Z,5.67
2018-09-25T14:24:41.276Z,5.05
2018-09-25T14:25:49.158Z,5.50
2018-09-25T14:26:56.970Z,4.97
2018-09-25T14:28:04.797Z,4.33
2018-09-25T14:29:12.909Z,4.67
2018-09-25T14:30:20.909Z,5.80
2018-09-25T14:31:29.085Z,5.67
2018-09-25T14:32:37.029Z,3.92
2018-09-25T14:33:44.801Z,4.83
2018-09-25T14:34:53.006Z,4.12
2018-09-25T14:36:00.941Z,4.92
2018-09-25T14:37:08.809Z,4.62
2018-09-25T14:38:16.701Z,4.33
2018-09-25T14:39:24.987Z,4.15
2018-09-25T14:40:32.909Z,4.53
2018-09-25T14:41:40.799Z,4.03
2018-09-25T14:42:48.785Z,4.67
2018-09-25T14:43:56.953Z,5.03
2018-09-25T14:45:04.845Z,5.15
2018-09-25T14:46:13.454Z,4.28
2018-09-25T14:47:21.275Z,5.28
2018-09-25T14:48:29.307Z,4.55
2018-09-25T14:49:37.158Z,4.80
2018-09-25T14:50:45.050Z,4.50
2018-09-25T14:51:52.974Z,4.87
2018-09-25T14:53:01.200Z,6.17
2018-09-25T14:54:09.013Z,4.62
2018-09-25T14:55:16.970Z,4.30
2018-09-25T14:56:24.932Z,5.05
2018-09-25T14:57:32.841Z,5.28
2018-09-25T14:58:40.889Z,4.75
2018-09-25T14:59:48.729Z,4.00
2018-09-25T15:00:56.967Z,4.62
2018-09-25T15:02:04.666Z,4.20
2018-09-25T15:03:12.598Z,5.17
2018-09-25T15:04:20.728Z,5.20
2018-09-25T15:05:28.547Z,5.47